Terminal Aerodrome Forecast
Issued by NWS

Home | Current Version | Previous Version | Text Only | Print | Product List | Glossary On
Versions: 1 2 3 4 5 6 7 8 9 10 11 12 13 14
000
FTUS43 KILX 200541
TAFCMI
TAF
KCMI 200541Z 2006/2106 20015KT P6SM SCT250 WS018/24050KT
     FM201400 22010KT P6SM BKN200
     FM201600 22013KT P6SM BKN020
     FM201800 22013KT P6SM BKN015
     FM210000 19008KT 4SM BR VCSH OVC007=

USA.gov is the U.S. government's official web portal to all federal, state and local government web resources and services.